sensor_id;sensor_type;location;lat;lon;timestamp;pressure;altitude;pressure_sealevel;temperature;humidity
42633;BME280;28261;53.304;-6.284;2024-03-02T00:00:12;98785.53;;;2.27;100.00
42633;BME280;28261;53.304;-6.284;2024-03-02T00:02:16;98785.53;;;2.27;100.00
42633;BME280;28261;53.304;-6.284;2024-03-02T00:04:20;98784.69;;;2.27;100.00
42633;BME280;28261;53.304;-6.284;2024-03-02T00:06:24;98782.91;;;2.27;100.00
42633;BME280;28261;53.304;-6.284;2024-03-02T00:08:29;98790.75;;;2.27;100.00
42633;BME280;28261;53.304;-6.284;2024-03-02T00:10:36;98788.16;;;2.27;100.00
42633;BME280;28261;53.304;-6.284;2024-03-02T00:12:42;98793.38;;;2.27;100.00
42633;BME280;28261;53.304;-6.284;2024-03-02T00:14:46;98799.63;;;2.25;100.00
42633;BME280;28261;53.304;-6.284;2024-03-02T00:16:52;98791.91;;;2.23;100.00
42633;BME280;28261;53.304;-6.284;2024-03-02T00:19:01;98794.50;;;2.23;100.00
42633;BME280;28261;53.304;-6.284;2024-03-02T00:21:06;98794.31;;;2.26;100.00
42633;BME280;28261;53.304;-6.284;2024-03-02T00:23:15;98797.66;;;2.28;100.00
42633;BME280;28261;53.304;-6.284;2024-03-02T00:25:19;98797.47;;;2.31;100.00
42633;BME280;28261;53.304;-6.284;2024-03-02T00:27:23;98801.13;;;2.29;100.00
42633;BME280;28261;53.304;-6.284;2024-03-02T00:29:28;98802.88;;;2.28;100.00
42633;BME280;28261;53.304;-6.284;2024-03-02T00:31:32;98790.00;;;2.25;100.00
42633;BME280;28261;53.304;-6.284;2024-03-02T00:33:41;98797.03;;;2.25;100.00
42633;BME280;28261;53.304;-6.284;2024-03-02T00:35:46;98791.13;;;2.21;100.00
42633;BME280;28261;53.304;-6.284;2024-03-02T00:37:48;98799.19;;;2.18;100.00
42633;BME280;28261;53.304;-6.284;2024-03-02T00:39:53;98800.13;;;2.17;100.00
42633;BME280;28261;53.304;-6.284;2024-03-02T00:41:57;98794.16;;;2.15;100.00
42633;BME280;28261;53.304;-6.284;2024-03-02T00:44:02;98798.63;;;2.13;100.00
42633;BME280;28261;53.304;-6.284;2024-03-02T00:46:06;98793.69;;;2.08;100.00
42633;BME280;28261;53.304;-6.284;2024-03-02T00:48:10;98796.59;;;2.03;100.00
42633;BME280;28261;53.304;-6.284;2024-03-02T00:50:17;98801.09;;;2.01;100.00
42633;BME280;28261;53.304;-6.284;2024-03-02T00:52:31;98804.53;;;2.02;100.00
42633;BME280;28261;53.304;-6.284;2024-03-02T00:54:35;98805.38;;;2.02;100.00
42633;BME280;28261;53.304;-6.284;2024-03-02T00:56:41;98814.06;;;2.03;100.00
42633;BME280;28261;53.304;-6.284;2024-03-02T00:58:46;98808.84;;;2.03;100.00
42633;BME280;28261;53.304;-6.284;2024-03-02T01:00:48;98810.50;;;2.04;100.00
42633;BME280;28261;53.304;-6.284;2024-03-02T01:02:52;98811.34;;;2.05;100.00
42633;BME280;28261;53.304;-6.284;2024-03-02T01:04:55;98816.56;;;2.05;100.00
42633;BME280;28261;53.304;-6.284;2024-03-02T01:07:01;98808.72;;;2.05;100.00
42633;BME280;28261;53.304;-6.284;2024-03-02T01:09:04;98805.38;;;2.02;100.00
42633;BME280;28261;53.304;-6.284;2024-03-02T01:11:08;98814.88;;;2.03;100.00
42633;BME280;28261;53.304;-6.284;2024-03-02T01:13:12;98806.13;;;2.05;100.00
42633;BME280;28261;53.304;-6.284;2024-03-02T01:15:15;98806.97;;;2.05;100.00
42633;BME280;28261;53.304;-6.284;2024-03-02T01:17:19;98807.81;;;2.06;100.00
42633;BME280;28261;53.304;-6.284;2024-03-02T01:19:23;98811.34;;;2.05;100.00
42633;BME280;28261;53.304;-6.284;2024-03-02T01:21:27;98814.88;;;2.03;100.00
42633;BME280;28261;53.304;-6.284;2024-03-02T01:23:32;98806.31;;;2.01;100.00
42633;BME280;28261;53.304;-6.284;2024-03-02T01:25:35;98813.41;;;1.99;100.00
42633;BME280;28261;53.304;-6.284;2024-03-02T01:27:39;98811.75;;;1.98;100.00
42633;BME280;28261;53.304;-6.284;2024-03-02T01:29:42;98810.78;;;1.99;100.00
42633;BME280;28261;53.304;-6.284;2024-03-02T01:31:46;98808.09;;;2.01;100.00
42633;BME280;28261;53.304;-6.284;2024-03-02T01:33:50;98816.00;;;1.99;100.00
42633;BME280;28261;53.304;-6.284;2024-03-02T01:35:53;98811.53;;;2.01;100.00
42633;BME280;28261;53.304;-6.284;2024-03-02T01:37:56;98804.63;;;2.00;100.00
42633;BME280;28261;53.304;-6.284;2024-03-02T01:40:02;98820.31;;;2.00;100.00
42633;BME280;28261;53.304;-6.284;2024-03-02T01:42:05;98809.13;;;1.98;100.00
42633;BME280;28261;53.304;-6.284;2024-03-02T01:44:09;98817.91;;;1.97;100.00
42633;BME280;28261;53.304;-6.284;2024-03-02T01:46:12;98810.88;;;1.98;100.00
42633;BME280;28261;53.304;-6.284;2024-03-02T01:48:16;98818.63;;;1.99;100.00
42633;BME280;28261;53.304;-6.284;2024-03-02T01:50:26;98816.88;;;2.00;100.00
42633;BME280;28261;53.304;-6.284;2024-03-02T01:52:31;98812.47;;;2.00;100.00
42633;BME280;28261;53.304;-6.284;2024-03-02T01:54:34;98810.88;;;1.98;100.00
42633;BME280;28261;53.304;-6.284;2024-03-02T01:56:40;98811.81;;;1.97;100.00
42633;BME280;28261;53.304;-6.284;2024-03-02T01:58:44;98809.19;;;1.97;100.00
42633;BME280;28261;53.304;-6.284;2024-03-02T02:00:48;98804.94;;;1.96;100.00
42633;BME280;28261;53.304;-6.284;2024-03-02T02:02:53;98804.94;;;1.96;100.00
42633;BME280;28261;53.304;-6.284;2024-03-02T02:04:57;98808.38;;;1.96;100.00
42633;BME280;28261;53.304;-6.284;2024-03-02T02:07:01;98806.69;;;1.95;100.00
42633;BME280;28261;53.304;-6.284;2024-03-02T02:09:06;98815.56;;;1.93;100.00
42633;BME280;28261;53.304;-6.284;2024-03-02T02:11:10;98822.75;;;1.89;100.00
42633;BME280;28261;53.304;-6.284;2024-03-02T02:13:16;98819.28;;;1.89;100.00
42633;BME280;28261;53.304;-6.284;2024-03-02T02:15:27;98822.00;;;1.87;100.00
42633;BME280;28261;53.304;-6.284;2024-03-02T02:17:31;98822.00;;;1.87;100.00
42633;BME280;28261;53.304;-6.284;2024-03-02T02:19:35;98820.25;;;1.88;100.00
42633;BME280;28261;53.304;-6.284;2024-03-02T02:21:43;98822.97;;;1.86;100.00
42633;BME280;28261;53.304;-6.284;2024-03-02T02:23:47;98816.16;;;1.83;100.00
42633;BME280;28261;53.304;-6.284;2024-03-02T02:25:52;98823.13;;;1.83;100.00
42633;BME280;28261;53.304;-6.284;2024-03-02T02:27:57;98821.28;;;1.85;100.00
42633;BME280;28261;53.304;-6.284;2024-03-02T02:30:01;98824.81;;;1.84;100.00
42633;BME280;28261;53.304;-6.284;2024-03-02T02:32:05;98822.19;;;1.84;100.00
42633;BME280;28261;53.304;-6.284;2024-03-02T02:34:09;98832.75;;;1.82;100.00
42633;BME280;28261;53.304;-6.284;2024-03-02T02:36:13;98825.94;;;1.80;100.00
42633;BME280;28261;53.304;-6.284;2024-03-02T02:38:18;98826.13;;;1.77;100.00
42633;BME280;28261;53.304;-6.284;2024-03-02T02:40:22;98828.94;;;1.74;100.00
42633;BME280;28261;53.304;-6.284;2024-03-02T02:42:26;98826.41;;;1.72;100.00
42633;BME280;28261;53.304;-6.284;2024-03-02T02:44:30;98818.66;;;1.71;100.00
42633;BME280;28261;53.304;-6.284;2024-03-02T02:46:32;98826.69;;;1.67;100.00
42633;BME280;28261;53.304;-6.284;2024-03-02T02:48:36;98826.88;;;1.64;100.00
42633;BME280;28261;53.304;-6.284;2024-03-02T02:50:41;98829.50;;;1.64;100.00
42633;BME280;28261;53.304;-6.284;2024-03-02T02:52:44;98823.41;;;1.64;100.00
42633;BME280;28261;53.304;-6.284;2024-03-02T02:54:49;98833.13;;;1.62;100.00
42633;BME280;28261;53.304;-6.284;2024-03-02T02:56:52;98834.88;;;1.61;100.00
42633;BME280;28261;53.304;-6.284;2024-03-02T02:58:55;98833.22;;;1.60;100.00
42633;BME280;28261;53.304;-6.284;2024-03-02T03:00:58;98832.38;;;1.60;100.00
42633;BME280;28261;53.304;-6.284;2024-03-02T03:03:02;98839.38;;;1.59;100.00
42633;BME280;28261;53.304;-6.284;2024-03-02T03:05:07;98838.53;;;1.59;100.00
42633;BME280;28261;53.304;-6.284;2024-03-02T03:07:11;98834.16;;;1.59;100.00
42633;BME280;28261;53.304;-6.284;2024-03-02T03:09:15;98828.00;;;1.60;100.00
42633;BME280;28261;53.304;-6.284;2024-03-02T03:11:20;98822.78;;;1.60;100.00
42633;BME280;28261;53.304;-6.284;2024-03-02T03:13:25;98819.22;;;1.61;100.00
42633;BME280;28261;53.304;-6.284;2024-03-02T03:15:28;98820.91;;;1.62;100.00
42633;BME280;28261;53.304;-6.284;2024-03-02T03:17:32;98821.09;;;1.59;100.00
42633;BME280;28261;53.304;-6.284;2024-03-02T03:19:38;98817.66;;;1.59;100.00
42633;BME280;28261;53.304;-6.284;2024-03-02T03:21:43;98823.59;;;1.61;100.00
42633;BME280;28261;53.304;-6.284;2024-03-02T03:23:47;98823.59;;;1.61;100.00
42633;BME280;28261;53.304;-6.284;2024-03-02T03:25:50;98824.44;;;1.61;100.00
42633;BME280;28261;53.304;-6.284;2024-03-02T03:27:56;98824.44;;;1.61;100.00
42633;BME280;28261;53.304;-6.284;2024-03-02T03:30:00;98834.06;;;1.61;100.00
42633;BME280;28261;53.304;-6.284;2024-03-02T03:32:05;98828.94;;;1.59;100.00
42633;BME280;28261;53.304;-6.284;2024-03-02T03:34:09;98835.06;;;1.58;100.00
42633;BME280;28261;53.304;-6.284;2024-03-02T03:36:14;98831.63;;;1.58;100.00
42633;BME280;28261;53.304;-6.284;2024-03-02T03:38:18;98828.16;;;1.57;100.00
42633;BME280;28261;53.304;-6.284;2024-03-02T03:40:23;98827.34;;;1.57;100.00
42633;BME280;28261;53.304;-6.284;2024-03-02T03:42:27;98835.16;;;1.57;100.00
42633;BME280;28261;53.304;-6.284;2024-03-02T03:44:35;98829.13;;;1.56;100.00
42633;BME280;28261;53.304;-6.284;2024-03-02T03:46:38;98832.66;;;1.55;100.00
42633;BME280;28261;53.304;-6.284;2024-03-02T03:48:44;98836.94;;;1.56;100.00
42633;BME280;28261;53.304;-6.284;2024-03-02T03:50:48;98836.09;;;1.56;100.00
42633;BME280;28261;53.304;-6.284;2024-03-02T03:52:52;98837.97;;;1.54;100.00
42633;BME280;28261;53.304;-6.284;2024-03-02T03:54:55;98835.38;;;1.54;100.00
42633;BME280;28261;53.304;-6.284;2024-03-02T03:56:59;98839.81;;;1.51;100.00
42633;BME280;28261;53.304;-6.284;2024-03-02T03:59:03;98838.16;;;1.50;100.00
42633;BME280;28261;53.304;-6.284;2024-03-02T04:01:08;98831.16;;;1.51;100.00
42633;BME280;28261;53.304;-6.284;2024-03-02T04:03:13;98833.88;;;1.49;100.00
42633;BME280;28261;53.304;-6.284;2024-03-02T04:05:17;98839.19;;;1.48;100.00
42633;BME280;28261;53.304;-6.284;2024-03-02T04:07:21;98837.50;;;1.47;100.00
42633;BME280;28261;53.304;-6.284;2024-03-02T04:09:24;98841.91;;;1.46;100.00
42633;BME280;28261;53.304;-6.284;2024-03-02T04:11:28;98841.03;;;1.46;100.00
42633;BME280;28261;53.304;-6.284;2024-03-02T04:13:33;98840.31;;;1.44;100.00
42633;BME280;28261;53.304;-6.284;2024-03-02T04:15:36;98838.63;;;1.43;100.00
42633;BME280;28261;53.304;-6.284;2024-03-02T04:17:42;98841.22;;;1.43;100.00
42633;BME280;28261;53.304;-6.284;2024-03-02T04:19:47;98837.69;;;1.44;100.00
42633;BME280;28261;53.304;-6.284;2024-03-02T04:21:50;98836.00;;;1.43;100.00
42633;BME280;28261;53.304;-6.284;2024-03-02T04:23:55;98837.84;;;1.41;100.00
42633;BME280;28261;53.304;-6.284;2024-03-02T04:26:00;98839.53;;;1.42;100.00
42633;BME280;28261;53.304;-6.284;2024-03-02T04:28:05;98839.53;;;1.42;100.00
42633;BME280;28261;53.304;-6.284;2024-03-02T04:30:09;98833.38;;;1.43;100.00
42633;BME280;28261;53.304;-6.284;2024-03-02T04:32:13;98836.94;;;1.42;100.00
42633;BME280;28261;53.304;-6.284;2024-03-02T04:34:18;98836.09;;;1.41;100.00
42633;BME280;28261;53.304;-6.284;2024-03-02T04:36:22;98836.00;;;1.43;100.00
42633;BME280;28261;53.304;-6.284;2024-03-02T04:38:26;98836.09;;;1.41;100.00
42633;BME280;28261;53.304;-6.284;2024-03-02T04:40:31;98837.84;;;1.41;100.00
42633;BME280;28261;53.304;-6.284;2024-03-02T04:42:35;98830.00;;;1.41;100.00
42633;BME280;28261;53.304;-6.284;2024-03-02T04:44:38;98841.41;;;1.40;100.00
42633;BME280;28261;53.304;-6.284;2024-03-02T04:46:42;98836.34;;;1.37;100.00
42633;BME280;28261;53.304;-6.284;2024-03-02T04:48:46;98837.22;;;1.37;100.00
42633;BME280;28261;53.304;-6.284;2024-03-02T04:50:52;98848.47;;;1.38;100.00
42633;BME280;28261;53.304;-6.284;2024-03-02T04:52:56;98840.75;;;1.36;100.00
42633;BME280;28261;53.304;-6.284;2024-03-02T04:55:03;98848.56;;;1.36;100.00
42633;BME280;28261;53.304;-6.284;2024-03-02T04:57:19;98852.22;;;1.33;100.00
42633;BME280;28261;53.304;-6.284;2024-03-02T04:59:24;98850.53;;;1.32;100.00
42633;BME280;28261;53.304;-6.284;2024-03-02T05:01:27;98852.41;;;1.30;100.00
42633;BME280;28261;53.304;-6.284;2024-03-02T05:03:31;98849.78;;;1.30;100.00
42633;BME280;28261;53.304;-6.284;2024-03-02T05:05:37;98855.00;;;1.30;100.00
42633;BME280;28261;53.304;-6.284;2024-03-02T05:07:43;98860.31;;;1.29;100.00
42633;BME280;28261;53.304;-6.284;2024-03-02T05:09:48;98845.69;;;1.26;100.00
42633;BME280;28261;53.304;-6.284;2024-03-02T05:11:52;98857.13;;;1.24;100.00
42633;BME280;28261;53.304;-6.284;2024-03-02T05:14:14;98854.63;;;1.22;100.00
42633;BME280;28261;53.304;-6.284;2024-03-02T05:16:18;98858.16;;;1.21;100.00
42633;BME280;28261;53.304;-6.284;2024-03-02T05:18:21;98849.59;;;1.19;100.00
42633;BME280;28261;53.304;-6.284;2024-03-02T05:20:27;98853.94;;;1.18;100.00
42633;BME280;28261;53.304;-6.284;2024-03-02T05:22:32;98855.81;;;1.16;100.00
42633;BME280;28261;53.304;-6.284;2024-03-02T05:24:37;98853.22;;;1.16;100.00
42633;BME280;28261;53.304;-6.284;2024-03-02T05:26:42;98849.94;;;1.13;100.00
42633;BME280;28261;53.304;-6.284;2024-03-02T05:28:46;98854.31;;;1.12;100.00
42633;BME280;28261;53.304;-6.284;2024-03-02T05:30:50;98851.81;;;1.11;100.00
42633;BME280;28261;53.304;-6.284;2024-03-02T05:32:54;98848.44;;;1.09;100.00
42633;BME280;28261;53.304;-6.284;2024-03-02T05:34:58;98858.88;;;1.09;100.00
42633;BME280;28261;53.304;-6.284;2024-03-02T05:37:02;98862.41;;;1.08;100.00
42633;BME280;28261;53.304;-6.284;2024-03-02T05:39:06;98862.41;;;1.08;100.00
42633;BME280;28261;53.304;-6.284;2024-03-02T05:41:13;98859.06;;;1.06;100.00
42633;BME280;28261;53.304;-6.284;2024-03-02T05:43:17;98859.97;;;1.05;100.00
42633;BME280;28261;53.304;-6.284;2024-03-02T05:45:22;98859.06;;;1.06;100.00
42633;BME280;28261;53.304;-6.284;2024-03-02T05:47:26;98857.38;;;1.05;100.00
42633;BME280;28261;53.304;-6.284;2024-03-02T05:49:30;98861.66;;;1.06;100.00
42633;BME280;28261;53.304;-6.284;2024-03-02T05:51:34;98863.41;;;1.05;100.00
42633;BME280;28261;53.304;-6.284;2024-03-02T05:53:39;98857.28;;;1.06;100.00
42633;BME280;28261;53.304;-6.284;2024-03-02T05:55:43;98859.88;;;1.06;100.00
42633;BME280;28261;53.304;-6.284;2024-03-02T05:57:49;98865.00;;;1.08;100.00
42633;BME280;28261;53.304;-6.284;2024-03-02T06:00:06;98861.47;;;1.09;100.00
42633;BME280;28261;53.304;-6.284;2024-03-02T06:02:14;98866.69;;;1.09;100.00
42633;BME280;28261;53.304;-6.284;2024-03-02T06:04:18;98869.31;;;1.09;100.00
42633;BME280;28261;53.304;-6.284;2024-03-02T06:06:23;98863.16;;;1.10;100.00
42633;BME280;28261;53.304;-6.284;2024-03-02T06:08:26;98877.91;;;1.11;100.00
42633;BME280;28261;53.304;-6.284;2024-03-02T06:10:30;98882.06;;;1.13;100.00
42633;BME280;28261;53.304;-6.284;2024-03-02T06:12:34;98883.75;;;1.14;100.00
42633;BME280;28261;53.304;-6.284;2024-03-02T06:14:40;98884.63;;;1.15;100.00
42633;BME280;28261;53.304;-6.284;2024-03-02T06:16:42;98885.44;;;1.15;100.00
42633;BME280;28261;53.304;-6.284;2024-03-02T06:18:47;98887.22;;;1.15;100.00
42633;BME280;28261;53.304;-6.284;2024-03-02T06:20:51;98889.84;;;1.15;100.00
42633;BME280;28261;53.304;-6.284;2024-03-02T06:22:55;98886.38;;;1.14;100.00
42633;BME280;28261;53.304;-6.284;2024-03-02T06:24:58;98887.22;;;1.15;100.00
42633;BME280;28261;53.304;-6.284;2024-03-02T06:27:03;98887.22;;;1.15;100.00
42633;BME280;28261;53.304;-6.284;2024-03-02T06:29:07;98889.84;;;1.15;100.00
42633;BME280;28261;53.304;-6.284;2024-03-02T06:31:12;98891.59;;;1.14;100.00
42633;BME280;28261;53.304;-6.284;2024-03-02T06:33:16;98891.69;;;1.13;100.00
42633;BME280;28261;53.304;-6.284;2024-03-02T06:35:21;98889.25;;;1.10;100.00
42633;BME280;28261;53.304;-6.284;2024-03-02T06:37:25;98889.34;;;1.08;100.00
42633;BME280;28261;53.304;-6.284;2024-03-02T06:39:29;98889.44;;;1.07;100.00
42633;BME280;28261;53.304;-6.284;2024-03-02T06:41:36;98883.47;;;1.05;100.00
42633;BME280;28261;53.304;-6.284;2024-03-02T06:43:40;98885.34;;;1.03;100.00
42633;BME280;28261;53.304;-6.284;2024-03-02T06:45:44;98881.94;;;1.00;100.00
42633;BME280;28261;53.304;-6.284;2024-03-02T06:47:49;98884.56;;;1.00;100.00
42633;BME280;28261;53.304;-6.284;2024-03-02T06:49:53;98892.38;;;1.00;100.00
42633;BME280;28261;53.304;-6.284;2024-03-02T06:51:57;98887.34;;;0.97;100.00
42633;BME280;28261;53.304;-6.284;2024-03-02T06:54:01;98891.63;;;0.98;100.00
42633;BME280;28261;53.304;-6.284;2024-03-02T06:56:06;98895.19;;;0.97;100.00
42633;BME280;28261;53.304;-6.284;2024-03-02T06:58:12;98897.78;;;0.97;100.00
42633;BME280;28261;53.304;-6.284;2024-03-02T07:00:18;98899.44;;;0.98;100.00
42633;BME280;28261;53.304;-6.284;2024-03-02T07:02:23;98906.34;;;0.99;100.00
42633;BME280;28261;53.304;-6.284;2024-03-02T07:04:29;98903.75;;;0.99;100.00
42633;BME280;28261;53.304;-6.284;2024-03-02T07:06:32;98905.44;;;1.00;100.00
42633;BME280;28261;53.304;-6.284;2024-03-02T07:08:37;98907.22;;;1.00;100.00
42633;BME280;28261;53.304;-6.284;2024-03-02T07:10:41;98905.53;;;0.99;100.00
42633;BME280;28261;53.304;-6.284;2024-03-02T07:12:45;98909.88;;;0.98;100.00
42633;BME280;28261;53.304;-6.284;2024-03-02T07:14:49;98906.44;;;0.98;100.00
42633;BME280;28261;53.304;-6.284;2024-03-02T07:17:14;98901.31;;;0.96;100.00
42633;BME280;28261;53.304;-6.284;2024-03-02T07:19:18;98901.31;;;0.96;100.00
42633;BME280;28261;53.304;-6.284;2024-03-02T07:21:24;98903.84;;;0.98;100.00
42633;BME280;28261;53.304;-6.284;2024-03-02T07:23:28;98904.50;;;1.01;100.00
42633;BME280;28261;53.304;-6.284;2024-03-02T07:25:32;98905.25;;;1.04;100.00
42633;BME280;28261;53.304;-6.284;2024-03-02T07:27:40;98898.38;;;1.03;100.00
42633;BME280;28261;53.304;-6.284;2024-03-02T07:29:44;98896.50;;;1.05;100.00
42633;BME280;28261;53.304;-6.284;2024-03-02T07:31:48;98911.25;;;1.06;100.00
42633;BME280;28261;53.304;-6.284;2024-03-02T07:33:52;98908.44;;;1.09;100.00
42633;BME280;28261;53.304;-6.284;2024-03-02T07:35:56;98903.13;;;1.10;100.00
42633;BME280;28261;53.304;-6.284;2024-03-02T07:38:07;98907.34;;;1.13;100.00
42633;BME280;28261;53.304;-6.284;2024-03-02T07:40:13;98913.97;;;1.18;100.00
42633;BME280;28261;53.304;-6.284;2024-03-02T07:42:17;98912.03;;;1.22;100.00
42633;BME280;28261;53.304;-6.284;2024-03-02T07:44:21;98916.16;;;1.26;100.00
42633;BME280;28261;53.304;-6.284;2024-03-02T07:46:25;98921.09;;;1.31;100.00
42633;BME280;28261;53.304;-6.284;2024-03-02T07:48:28;98914.88;;;1.33;100.00
42633;BME280;28261;53.304;-6.284;2024-03-02T07:50:33;98923.47;;;1.35;100.00
42633;BME280;28261;53.304;-6.284;2024-03-02T07:52:37;98927.47;;;1.41;100.00
42633;BME280;28261;53.304;-6.284;2024-03-02T07:54:44;98921.25;;;1.44;100.00
42633;BME280;28261;53.304;-6.284;2024-03-02T07:56:48;98925.44;;;1.46;100.00
42633;BME280;28261;53.304;-6.284;2024-03-02T07:58:52;98927.00;;;1.49;100.00
42633;BME280;28261;53.304;-6.284;2024-03-02T08:00:56;98925.16;;;1.51;100.00
42633;BME280;28261;53.304;-6.284;2024-03-02T08:03:00;98927.59;;;1.54;100.00
42633;BME280;28261;53.304;-6.284;2024-03-02T08:05:05;98935.25;;;1.57;100.00
42633;BME280;28261;53.304;-6.284;2024-03-02T08:07:09;98933.38;;;1.59;100.00
42633;BME280;28261;53.304;-6.284;2024-03-02T08:09:14;98935.09;;;1.60;100.00
42633;BME280;28261;53.304;-6.284;2024-03-02T08:11:19;98940.22;;;1.62;100.00
42633;BME280;28261;53.304;-6.284;2024-03-02T08:13:23;98931.44;;;1.63;100.00
42633;BME280;28261;53.304;-6.284;2024-03-02T08:15:28;98936.59;;;1.64;100.00
42633;BME280;28261;53.304;-6.284;2024-03-02T08:17:33;98935.56;;;1.67;100.00
42633;BME280;28261;53.304;-6.284;2024-03-02T08:19:39;98932.75;;;1.70;100.00
42633;BME280;28261;53.304;-6.284;2024-03-02T08:21:43;98930.88;;;1.72;100.00
42633;BME280;28261;53.304;-6.284;2024-03-02T08:23:48;98935.09;;;1.75;100.00
42633;BME280;28261;53.304;-6.284;2024-03-02T08:25:53;98939.97;;;1.81;100.00
42633;BME280;28261;53.304;-6.284;2024-03-02T08:27:58;98931.00;;;1.85;100.00
42633;BME280;28261;53.304;-6.284;2024-03-02T08:30:04;98939.56;;;1.87;100.00
42633;BME280;28261;53.304;-6.284;2024-03-02T08:32:09;98933.13;;;1.93;100.00
42633;BME280;28261;53.304;-6.284;2024-03-02T08:34:15;98937.91;;;2.00;100.00
42633;BME280;28261;53.304;-6.284;2024-03-02T08:36:19;98937.66;;;2.05;100.00
42633;BME280;28261;53.304;-6.284;2024-03-02T08:38:24;98938.09;;;2.12;100.00
42633;BME280;28261;53.304;-6.284;2024-03-02T08:40:28;98933.44;;;2.17;100.00
42633;BME280;28261;53.304;-6.284;2024-03-02T08:42:32;98935.50;;;2.26;100.00
42633;BME280;28261;53.304;-6.284;2024-03-02T08:44:38;98941.66;;;2.40;100.00
42633;BME280;28261;53.304;-6.284;2024-03-02T08:46:42;98941.16;;;2.47;100.00
42633;BME280;28261;53.304;-6.284;2024-03-02T08:48:47;98949.28;;;2.57;100.00
42633;BME280;28261;53.304;-6.284;2024-03-02T08:50:51;98950.38;;;2.67;100.00
42633;BME280;28261;53.304;-6.284;2024-03-02T08:52:55;98940.16;;;2.77;100.00
42633;BME280;28261;53.304;-6.284;2024-03-02T08:54:59;98934.25;;;2.88;100.00
42633;BME280;28261;53.304;-6.284;2024-03-02T08:57:05;98942.78;;;3.04;100.00
42633;BME280;28261;53.304;-6.284;2024-03-02T08:59:10;98936.38;;;3.23;100.00
42633;BME280;28261;53.304;-6.284;2024-03-02T09:01:16;98935.25;;;3.40;100.00
42633;BME280;28261;53.304;-6.284;2024-03-02T09:03:21;98933.28;;;3.56;100.00
42633;BME280;28261;53.304;-6.284;2024-03-02T09:05:25;98944.72;;;3.68;100.00
42633;BME280;28261;53.304;-6.284;2024-03-02T09:07:29;98937.41;;;3.73;100.00
42633;BME280;28261;53.304;-6.284;2024-03-02T09:09:34;98940.56;;;3.79;100.00
42633;BME280;28261;53.304;-6.284;2024-03-02T09:11:38;98937.50;;;3.85;100.00
42633;BME280;28261;53.304;-6.284;2024-03-02T09:13:44;98946.94;;;3.87;100.00
42633;BME280;28261;53.304;-6.284;2024-03-02T09:15:48;98947.06;;;3.86;100.00
42633;BME280;28261;53.304;-6.284;2024-03-02T09:17:54;98945.59;;;3.82;100.00
42633;BME280;28261;53.304;-6.284;2024-03-02T09:19:59;98939.59;;;3.80;100.00
42633;BME280;28261;53.304;-6.284;2024-03-02T09:22:06;98952.19;;;3.75;100.00
42633;BME280;28261;53.304;-6.284;2024-03-02T09:24:11;98944.63;;;3.70;100.00
42633;BME280;28261;53.304;-6.284;2024-03-02T09:26:19;98945.06;;;3.64;100.00
42633;BME280;28261;53.304;-6.284;2024-03-02T09:28:23;98946.94;;;3.62;100.00
42633;BME280;28261;53.304;-6.284;2024-03-02T09:30:27;98942.63;;;3.61;100.00
42633;BME280;28261;53.304;-6.284;2024-03-02T09:32:31;98947.47;;;3.67;100.00
42633;BME280;28261;53.304;-6.284;2024-03-02T09:34:37;98942.88;;;3.70;100.00
42633;BME280;28261;53.304;-6.284;2024-03-02T09:36:40;98950.81;;;3.69;100.00
42633;BME280;28261;53.304;-6.284;2024-03-02T09:38:45;98942.13;;;3.68;100.00
42633;BME280;28261;53.304;-6.284;2024-03-02T09:40:49;98947.34;;;3.68;100.00
42633;BME280;28261;53.304;-6.284;2024-03-02T09:42:56;98937.91;;;3.66;100.00
42633;BME280;28261;53.304;-6.284;2024-03-02T09:45:01;98944.84;;;3.67;100.00
42633;BME280;28261;53.304;-6.284;2024-03-02T09:47:08;98948.19;;;3.69;100.00
42633;BME280;28261;53.304;-6.284;2024-03-02T09:49:11;98948.00;;;3.72;100.00
42633;BME280;28261;53.304;-6.284;2024-03-02T09:51:16;98929.56;;;3.73;100.00
42633;BME280;28261;53.304;-6.284;2024-03-02T09:53:22;98936.25;;;3.78;100.00
42633;BME280;28261;53.304;-6.284;2024-03-02T09:55:27;98938.88;;;3.78;100.00
42633;BME280;28261;53.304;-6.284;2024-03-02T09:57:31;98943.38;;;3.76;100.00
42633;BME280;28261;53.304;-6.284;2024-03-02T09:59:35;98936.47;;;3.75;100.00
42633;BME280;28261;53.304;-6.284;2024-03-02T10:01:39;98943.38;;;3.76;100.00
42633;BME280;28261;53.304;-6.284;2024-03-02T10:03:45;98939.81;;;3.77;100.00
42633;BME280;28261;53.304;-6.284;2024-03-02T10:05:53;98945.88;;;3.77;100.00
42633;BME280;28261;53.304;-6.284;2024-03-02T10:08:01;98937.94;;;3.79;100.00
42633;BME280;28261;53.304;-6.284;2024-03-02T10:10:13;98932.28;;;3.85;100.00
42633;BME280;28261;53.304;-6.284;2024-03-02T10:12:18;98930.19;;;3.90;100.00
42633;BME280;28261;53.304;-6.284;2024-03-02T10:14:22;98931.44;;;3.97;100.00
42633;BME280;28261;53.304;-6.284;2024-03-02T10:16:25;98930.81;;;4.06;100.00
42633;BME280;28261;53.304;-6.284;2024-03-02T10:18:29;98928.56;;;4.26;100.00
42633;BME280;28261;53.304;-6.284;2024-03-02T10:20:34;98928.88;;;4.47;100.00
42633;BME280;28261;53.304;-6.284;2024-03-02T10:22:38;98919.16;;;4.61;100.00
42633;BME280;28261;53.304;-6.284;2024-03-02T10:24:44;98936.16;;;4.68;100.00
42633;BME280;28261;53.304;-6.284;2024-03-02T10:26:51;98934.28;;;4.57;100.00
42633;BME280;28261;53.304;-6.284;2024-03-02T10:28:54;98931.66;;;4.57;100.00
42633;BME280;28261;53.304;-6.284;2024-03-02T10:31:02;98941.19;;;4.71;100.00
42633;BME280;28261;53.304;-6.284;2024-03-02T10:33:09;98929.41;;;4.77;100.00
42633;BME280;28261;53.304;-6.284;2024-03-02T10:35:12;98932.25;;;4.73;100.00
42633;BME280;28261;53.304;-6.284;2024-03-02T10:37:17;98930.41;;;4.63;100.00
42633;BME280;28261;53.304;-6.284;2024-03-02T10:39:21;98922.13;;;4.56;100.00
42633;BME280;28261;53.304;-6.284;2024-03-02T10:41:29;98931.97;;;4.52;100.00
42633;BME280;28261;53.304;-6.284;2024-03-02T10:43:35;98934.84;;;4.49;100.00
42633;BME280;28261;53.304;-6.284;2024-03-02T10:45:39;98932.53;;;4.45;100.00
42633;BME280;28261;53.304;-6.284;2024-03-02T10:47:44;98928.56;;;4.39;100.00
42633;BME280;28261;53.304;-6.284;2024-03-02T10:49:51;98928.47;;;4.40;100.00
42633;BME280;28261;53.304;-6.284;2024-03-02T10:51:56;98930.34;;;4.38;100.00